createdAt,value
2022-12-11T00:00:45.202Z,5.12
2022-12-11T00:03:47.550Z,5.12
2022-12-11T00:06:50.559Z,5.07
2022-12-11T00:09:52.354Z,5.12
2022-12-11T00:12:54.087Z,5.09
2022-12-11T00:15:57.855Z,4.96
2022-12-11T00:18:59.873Z,4.93
2022-12-11T00:22:01.517Z,4.94
2022-12-11T00:25:03.360Z,4.88
2022-12-11T00:28:05.046Z,4.93
2022-12-11T00:31:08.660Z,4.89
2022-12-11T00:34:11.996Z,4.92
2022-12-11T00:37:13.800Z,4.88
2022-12-11T00:40:15.543Z,4.88
2022-12-11T00:43:17.729Z,4.89
2022-12-11T00:46:19.388Z,4.88
2022-12-11T00:49:21.158Z,4.84
2022-12-11T00:52:22.965Z,4.92
2022-12-11T00:55:25.481Z,4.81
2022-12-11T00:58:27.805Z,4.80
2022-12-11T01:01:29.613Z,4.85
2022-12-11T01:04:31.445Z,4.88
2022-12-11T01:07:33.054Z,4.80
2022-12-11T01:10:35.394Z,4.81
2022-12-11T01:13:38.262Z,4.87
2022-12-11T01:16:40.010Z,4.84
2022-12-11T01:19:41.736Z,4.86
2022-12-11T01:22:43.394Z,4.89
2022-12-11T01:25:45.042Z,4.85
2022-12-11T01:28:51.589Z,4.96
2022-12-11T01:31:53.191Z,5.09
2022-12-11T01:34:54.942Z,5.10
2022-12-11T01:37:56.598Z,5.04
2022-12-11T01:40:58.175Z,4.98
2022-12-11T01:44:04.002Z,5.15
2022-12-11T01:47:05.658Z,5.16
2022-12-11T01:50:10.262Z,5.22
2022-12-11T01:53:16.756Z,5.23
2022-12-11T01:56:19.164Z,5.19
2022-12-11T01:59:24.693Z,5.16
2022-12-11T02:02:29.970Z,5.21
2022-12-11T02:05:31.700Z,5.31
2022-12-11T02:08:33.448Z,5.35
2022-12-11T02:11:47.935Z,5.28
2022-12-11T02:15:02.154Z,5.30
2022-12-11T02:18:36.737Z,5.30
2022-12-11T02:21:43.468Z,5.31
2022-12-11T02:25:03.834Z,5.46
2022-12-11T02:28:11.322Z,5.42
2022-12-11T02:31:20.311Z,5.40
2022-12-11T02:34:32.199Z,5.38
2022-12-11T02:37:37.756Z,5.39
2022-12-11T02:40:42.231Z,5.50
2022-12-11T02:43:45.389Z,5.57
2022-12-11T02:46:47.316Z,5.54
2022-12-11T02:49:51.933Z,5.47
2022-12-11T02:52:56.532Z,5.52
2022-12-11T02:56:06.940Z,5.60
2022-12-11T02:59:21.518Z,5.51
2022-12-11T03:02:24.034Z,5.54
2022-12-11T03:05:27.229Z,5.63
2022-12-11T03:08:28.918Z,5.73
2022-12-11T03:11:30.571Z,5.73
2022-12-11T03:14:32.221Z,5.70
2022-12-11T03:17:40.028Z,5.68
2022-12-11T03:20:50.209Z,5.68
2022-12-11T03:24:12.319Z,5.67
2022-12-11T03:27:26.669Z,5.68
2022-12-11T03:30:28.998Z,5.64
2022-12-11T03:33:36.384Z,5.66
2022-12-11T03:36:39.964Z,5.55
2022-12-11T03:39:49.938Z,5.55
2022-12-11T03:42:53.534Z,5.61
2022-12-11T03:45:56.906Z,5.61
2022-12-11T03:49:03.286Z,5.70
2022-12-11T03:52:06.448Z,5.77
2022-12-11T03:55:10.460Z,5.80
2022-12-11T03:58:12.265Z,5.83
2022-12-11T04:01:13.871Z,5.80
2022-12-11T04:04:15.735Z,5.72
2022-12-11T04:07:17.353Z,5.52
2022-12-11T04:10:18.968Z,5.23
2022-12-11T04:13:20.577Z,5.17
2022-12-11T04:16:22.225Z,4.87
2022-12-11T04:19:43.254Z,4.67
2022-12-11T04:23:10.960Z,4.51
2022-12-11T04:26:16.823Z,4.54
2022-12-11T04:29:18.507Z,4.55
2022-12-11T04:32:20.097Z,4.47
2022-12-11T04:35:22.258Z,4.44
2022-12-11T04:38:24.025Z,4.24
2022-12-11T04:41:25.725Z,4.28
2022-12-11T04:44:27.342Z,4.09
2022-12-11T04:47:28.955Z,4.11
2022-12-11T04:50:30.593Z,4.21
2022-12-11T04:53:32.569Z,4.16
2022-12-11T04:56:34.248Z,4.17
2022-12-11T04:59:37.171Z,4.09
2022-12-11T05:02:40.460Z,3.97
2022-12-11T05:05:51.298Z,3.87
2022-12-11T05:08:53.566Z,3.97
2022-12-11T05:11:55.553Z,4.03
2022-12-11T05:14:57.182Z,4.00
2022-12-11T05:17:58.782Z,3.95
2022-12-11T05:21:02.706Z,3.97
2022-12-11T05:24:04.634Z,3.90
2022-12-11T05:27:06.483Z,3.95
2022-12-11T05:30:10.103Z,3.97
2022-12-11T05:33:11.730Z,3.86
2022-12-11T05:36:19.004Z,3.78
2022-12-11T05:39:21.111Z,3.69
2022-12-11T05:42:27.136Z,3.63
2022-12-11T05:45:30.525Z,3.56
2022-12-11T05:48:32.152Z,3.74
2022-12-11T05:51:34.754Z,3.71
2022-12-11T05:54:36.376Z,3.41
2022-12-11T05:57:38.047Z,3.29
2022-12-11T06:00:41.933Z,3.28
2022-12-11T06:03:43.850Z,3.28
2022-12-11T06:06:45.516Z,3.30
2022-12-11T06:09:47.160Z,3.37
2022-12-11T06:12:48.755Z,3.42
2022-12-11T06:15:50.351Z,3.54
2022-12-11T06:18:55.793Z,3.43
2022-12-11T06:21:59.797Z,3.39
2022-12-11T06:25:01.414Z,3.35
2022-12-11T06:28:03.078Z,3.27
2022-12-11T06:31:05.116Z,3.34
2022-12-11T06:34:06.828Z,3.20
2022-12-11T06:37:08.445Z,3.17
2022-12-11T06:40:11.853Z,3.13
2022-12-11T06:43:13.436Z,3.10
2022-12-11T06:46:17.952Z,3.21
2022-12-11T06:49:19.709Z,3.10
2022-12-11T06:52:25.442Z,3.09
2022-12-11T06:55:27.065Z,3.04
2022-12-11T06:58:28.741Z,3.03
2022-12-11T07:01:31.491Z,3.08
2022-12-11T07:04:33.315Z,2.96
2022-12-11T07:07:34.977Z,3.12
2022-12-11T07:10:38.822Z,3.27
2022-12-11T07:13:42.186Z,3.32
2022-12-11T07:16:43.959Z,3.32
2022-12-11T07:19:45.692Z,3.30
2022-12-11T07:22:47.356Z,3.37
2022-12-11T07:25:49.363Z,3.30
2022-12-11T07:28:51.246Z,3.38
2022-12-11T07:31:52.979Z,3.52
2022-12-11T07:34:54.777Z,3.63
2022-12-11T07:37:56.403Z,3.75
2022-12-11T07:41:05.456Z,3.83
2022-12-11T07:44:07.196Z,3.77
2022-12-11T07:47:08.815Z,3.81
2022-12-11T07:50:10.853Z,3.91
2022-12-11T07:53:12.486Z,3.85
2022-12-11T07:56:15.702Z,3.66
2022-12-11T07:59:17.343Z,3.69
2022-12-11T08:02:18.976Z,3.76
2022-12-11T08:05:20.817Z,3.89
2022-12-11T08:08:22.485Z,3.60
2022-12-11T08:11:24.984Z,3.49
2022-12-11T08:14:26.659Z,3.52
2022-12-11T08:17:31.795Z,3.53
2022-12-11T08:20:39.185Z,3.64
2022-12-11T08:23:41.294Z,3.64
2022-12-11T08:26:42.921Z,3.66
2022-12-11T08:29:45.742Z,3.65
2022-12-11T08:32:47.367Z,3.65
2022-12-11T08:35:49.033Z,3.72
2022-12-11T08:38:51.558Z,3.87
2022-12-11T08:41:53.199Z,3.98
2022-12-11T08:44:54.844Z,4.03
2022-12-11T08:47:58.054Z,4.07
2022-12-11T08:51:04.463Z,4.01
2022-12-11T08:54:06.110Z,4.06
2022-12-11T08:57:07.717Z,3.99
2022-12-11T09:00:12.382Z,4.03
2022-12-11T09:03:14.039Z,4.04
2022-12-11T09:06:18.203Z,3.96
2022-12-11T09:09:19.813Z,4.07
2022-12-11T09:12:21.433Z,4.17
2022-12-11T09:15:23.061Z,4.22
2022-12-11T09:18:24.723Z,4.19
2022-12-11T09:21:29.734Z,4.15
2022-12-11T09:24:31.465Z,4.20
2022-12-11T09:27:34.108Z,4.22
2022-12-11T09:30:37.271Z,4.24
2022-12-11T09:33:39.303Z,4.25
2022-12-11T09:36:42.549Z,4.35
2022-12-11T09:39:44.261Z,4.40
2022-12-11T09:43:06.448Z,4.35
2022-12-11T09:46:12.543Z,4.31
2022-12-11T09:49:27.182Z,4.24
2022-12-11T09:52:48.758Z,4.18
2022-12-11T09:56:20.982Z,4.25
2022-12-11T09:59:44.821Z,4.20
2022-12-11T10:02:55.476Z,4.26
2022-12-11T10:06:18.102Z,4.21
2022-12-11T10:09:28.027Z,3.78
2022-12-11T10:12:45.719Z,3.80
2022-12-11T10:16:02.334Z,3.89
2022-12-11T10:19:04.487Z,4.03
2022-12-11T10:22:14.414Z,4.13
2022-12-11T10:25:31.965Z,4.02
2022-12-11T10:28:35.017Z,4.10
2022-12-11T10:32:12.069Z,4.10
2022-12-11T10:35:38.414Z,4.14
2022-12-11T10:38:45.482Z,3.98
2022-12-11T10:41:49.716Z,3.88
2022-12-11T10:45:03.395Z,3.59
2022-12-11T10:48:10.477Z,3.56
2022-12-11T10:51:12.166Z,3.51
2022-12-11T10:54:31.102Z,3.50
2022-12-11T10:57:36.104Z,3.75
2022-12-11T11:00:41.010Z,3.83
2022-12-11T11:03:55.372Z,3.93
2022-12-11T11:07:12.750Z,3.83
2022-12-11T11:10:17.883Z,3.75
2022-12-11T11:13:22.308Z,3.87
2022-12-11T11:16:25.508Z,3.89
2022-12-11T11:19:31.783Z,3.88
2022-12-11T11:22:34.010Z,3.77
2022-12-11T11:25:35.729Z,3.89
2022-12-11T11:28:49.996Z,3.88
2022-12-11T11:31:51.687Z,3.85
2022-12-11T11:34:53.398Z,3.85
2022-12-11T11:38:19.953Z,3.78
2022-12-11T11:41:29.300Z,3.64
2022-12-11T11:44:37.075Z,3.79
2022-12-11T11:47:50.910Z,3.89
2022-12-11T11:50:53.914Z,3.96
2022-12-11T11:53:59.024Z,3.90
2022-12-11T11:57:10.960Z,3.83
2022-12-11T12:00:16.169Z,3.79
2022-12-11T12:03:20.006Z,3.70
2022-12-11T12:06:30.623Z,3.53
2022-12-11T12:09:48.239Z,3.32
2022-12-11T12:13:30.083Z,3.20
2022-12-11T12:16:52.820Z,3.28
2022-12-11T12:20:11.119Z,3.15
2022-12-11T12:23:12.717Z,3.21
2022-12-11T12:26:36.168Z,3.24
2022-12-11T12:29:53.475Z,3.27
2022-12-11T12:33:01.130Z,3.44
2022-12-11T12:36:21.123Z,3.34
2022-12-11T12:39:38.113Z,3.40
2022-12-11T12:43:11.021Z,3.57
2022-12-11T12:46:27.839Z,3.67
2022-12-11T12:49:42.279Z,3.86
2022-12-11T12:52:44.874Z,3.97
2022-12-11T12:55:48.527Z,4.06
2022-12-11T12:58:50.274Z,3.97
2022-12-11T13:01:57.140Z,4.07
2022-12-11T13:05:05.793Z,4.15
2022-12-11T13:08:08.106Z,4.18
2022-12-11T13:11:12.677Z,4.06
2022-12-11T13:14:15.307Z,3.97
2022-12-11T13:17:22.667Z,4.01
2022-12-11T13:20:30.738Z,4.00
2022-12-11T13:23:34.045Z,3.87
2022-12-11T13:26:35.721Z,3.77
2022-12-11T13:29:42.083Z,3.62
2022-12-11T13:32:58.716Z,3.75
2022-12-11T13:36:15.779Z,3.78
2022-12-11T13:39:25.954Z,3.88
2022-12-11T13:42:36.120Z,3.98
2022-12-11T13:45:44.555Z,3.89
2022-12-11T13:48:55.267Z,3.83
2022-12-11T13:51:59.951Z,4.03
2022-12-11T13:55:01.705Z,4.07
2022-12-11T13:58:03.340Z,4.09
2022-12-11T14:01:05.196Z,4.15
2022-12-11T14:04:14.028Z,4.15
2022-12-11T14:07:20.454Z,4.07
2022-12-11T14:10:32.408Z,4.16
2022-12-11T14:13:37.187Z,4.12
2022-12-11T14:16:39.318Z,4.01
2022-12-11T14:19:47.337Z,3.98
2022-12-11T14:22:49.038Z,3.97
2022-12-11T14:26:17.601Z,3.98
2022-12-11T14:29:30.271Z,4.02
2022-12-11T14:32:36.875Z,3.94
2022-12-11T14:35:42.014Z,3.90
2022-12-11T14:38:47.367Z,3.94
2022-12-11T14:41:57.824Z,3.84
2022-12-11T14:45:20.609Z,3.95
2022-12-11T14:48:28.477Z,3.94
2022-12-11T14:51:35.535Z,3.88
2022-12-11T14:54:42.909Z,3.80
2022-12-11T14:57:48.354Z,3.86
2022-12-11T15:01:00.738Z,3.81
2022-12-11T15:04:02.378Z,3.84
2022-12-11T15:07:19.712Z,3.79
2022-12-11T15:10:31.300Z,3.84
2022-12-11T15:13:35.201Z,3.85
2022-12-11T15:16:40.459Z,3.82
2022-12-11T15:19:52.657Z,3.84
2022-12-11T15:22:57.577Z,3.82
2022-12-11T15:26:01.632Z,3.79
2022-12-11T15:29:32.701Z,3.72
2022-12-11T15:32:34.523Z,3.70
2022-12-11T15:35:38.092Z,3.72
2022-12-11T15:38:42.038Z,3.70
2022-12-11T15:41:43.718Z,3.71
2022-12-11T15:44:45.554Z,3.75
2022-12-11T15:47:48.571Z,3.64
2022-12-11T15:50:50.807Z,3.68
2022-12-11T15:53:52.467Z,3.64
2022-12-11T15:56:55.198Z,3.62
2022-12-11T15:59:58.337Z,3.62
2022-12-11T16:03:00.211Z,3.62
2022-12-11T16:06:02.298Z,3.51
2022-12-11T16:09:05.124Z,3.37
2022-12-11T16:12:07.271Z,3.50
2022-12-11T16:15:10.659Z,3.48
2022-12-11T16:18:16.700Z,3.47
2022-12-11T16:21:21.618Z,3.46
2022-12-11T16:24:23.546Z,3.55
2022-12-11T16:27:25.235Z,3.51
2022-12-11T16:30:29.236Z,3.50
2022-12-11T16:33:30.894Z,3.45
2022-12-11T16:36:32.505Z,3.44
2022-12-11T16:39:37.019Z,3.36
2022-12-11T16:42:38.880Z,3.31
2022-12-11T16:45:41.973Z,3.33
2022-12-11T16:48:47.578Z,3.26
2022-12-11T16:51:49.839Z,3.30
2022-12-11T16:54:51.473Z,3.32
2022-12-11T16:57:53.132Z,3.28
2022-12-11T17:01:02.632Z,3.33
2022-12-11T17:04:04.304Z,3.40
2022-12-11T17:07:06.204Z,3.41
2022-12-11T17:10:08.484Z,3.41
2022-12-11T17:13:10.095Z,3.43
2022-12-11T17:16:16.806Z,3.26
2022-12-11T17:19:19.751Z,3.41
2022-12-11T17:22:21.517Z,3.44
2022-12-11T17:25:23.509Z,3.47
2022-12-11T17:28:25.673Z,3.46
2022-12-11T17:31:27.803Z,3.40
2022-12-11T17:34:36.088Z,3.37
2022-12-11T17:37:39.710Z,3.33
2022-12-11T17:40:44.221Z,3.36
2022-12-11T17:43:45.902Z,3.31
2022-12-11T17:46:47.706Z,3.34
2022-12-11T17:49:49.499Z,3.31
2022-12-11T17:52:51.671Z,3.33
2022-12-11T17:55:54.027Z,3.37
2022-12-11T17:58:55.693Z,3.37
2022-12-11T18:01:57.917Z,3.40
2022-12-11T18:04:59.784Z,3.40
2022-12-11T18:08:02.127Z,3.37
2022-12-11T18:11:09.995Z,3.28
2022-12-11T18:14:16.881Z,3.29
2022-12-11T18:17:18.939Z,3.32
2022-12-11T18:20:24.749Z,3.38
2022-12-11T18:23:26.610Z,3.33
2022-12-11T18:26:29.086Z,3.28
2022-12-11T18:29:30.922Z,3.36
2022-12-11T18:32:32.843Z,3.27
2022-12-11T18:35:34.616Z,3.34
2022-12-11T18:38:38.132Z,3.34
2022-12-11T18:41:40.140Z,3.15
2022-12-11T18:44:44.391Z,3.14
2022-12-11T18:47:47.238Z,3.24
2022-12-11T18:50:51.370Z,3.16
2022-12-11T18:53:53.614Z,3.19
2022-12-11T18:56:55.502Z,3.22
2022-12-11T19:00:02.287Z,3.19
2022-12-11T19:03:05.289Z,3.14
2022-12-11T19:06:13.269Z,3.14
2022-12-11T19:09:16.002Z,3.16
2022-12-11T19:12:18.221Z,3.14
2022-12-11T19:15:23.814Z,3.01
2022-12-11T19:18:26.772Z,2.92
2022-12-11T19:21:28.741Z,2.97
2022-12-11T19:24:30.723Z,3.01
2022-12-11T19:27:32.931Z,2.91
2022-12-11T19:30:35.270Z,2.69
2022-12-11T19:33:37.345Z,2.90
2022-12-11T19:36:40.636Z,2.89
2022-12-11T19:39:42.633Z,2.91
2022-12-11T19:42:44.810Z,2.88
2022-12-11T19:45:48.137Z,2.85
2022-12-11T19:48:53.805Z,2.73
2022-12-11T19:51:55.530Z,2.76
2022-12-11T19:55:01.777Z,2.83
2022-12-11T19:58:04.174Z,2.81
2022-12-11T20:01:07.400Z,2.72
2022-12-11T20:04:13.223Z,2.72
2022-12-11T20:07:14.866Z,2.75
2022-12-11T20:10:18.101Z,2.80
2022-12-11T20:13:21.524Z,2.75
2022-12-11T20:16:45.856Z,2.76
2022-12-11T20:19:45.339Z,2.64
2022-12-11T20:22:47.430Z,2.54
2022-12-11T20:25:50.077Z,2.54
2022-12-11T20:28:54.227Z,2.41
2022-12-11T20:31:55.880Z,2.30
2022-12-11T20:34:58.273Z,2.16
2022-12-11T20:38:00.112Z,2.21
2022-12-11T20:41:02.036Z,2.22
2022-12-11T20:44:03.741Z,2.18
2022-12-11T20:47:06.783Z,2.17
2022-12-11T20:50:11.053Z,2.15
2022-12-11T20:53:13.107Z,2.01
2022-12-11T20:56:18.895Z,1.95
2022-12-11T20:59:20.935Z,1.95
2022-12-11T21:02:23.737Z,1.93
2022-12-11T21:05:25.618Z,2.07
2022-12-11T21:08:27.272Z,1.88
2022-12-11T21:11:29.718Z,2.08
2022-12-11T21:14:32.010Z,2.22
2022-12-11T21:17:34.874Z,2.27
2022-12-11T21:20:36.974Z,2.33
2022-12-11T21:23:39.150Z,2.37
2022-12-11T21:26:40.770Z,2.39
2022-12-11T21:29:42.391Z,2.36
2022-12-11T21:32:44.804Z,2.39
2022-12-11T21:35:54.585Z,2.40
2022-12-11T21:38:58.780Z,2.53
2022-12-11T21:42:01.234Z,2.52
2022-12-11T21:48:25.618Z,2.57
2022-12-11T21:51:35.968Z,2.63
2022-12-11T21:54:39.732Z,2.56
2022-12-11T21:57:41.494Z,2.45
2022-12-11T22:00:46.681Z,2.42
2022-12-11T22:03:50.117Z,2.48
2022-12-11T22:06:51.786Z,2.52
2022-12-11T22:09:53.515Z,2.44
2022-12-11T22:12:55.309Z,2.44
2022-12-11T22:15:56.988Z,2.47
2022-12-11T22:18:58.918Z,2.14
2022-12-11T22:22:00.843Z,1.92
2022-12-11T22:25:03.668Z,1.93
2022-12-11T22:28:05.447Z,1.89
2022-12-11T22:31:13.997Z,2.04
2022-12-11T22:34:15.737Z,2.13
2022-12-11T22:37:17.328Z,2.17
2022-12-11T22:40:19.150Z,2.18
2022-12-11T22:43:21.718Z,2.03
2022-12-11T22:46:27.256Z,1.89
2022-12-11T22:49:29.027Z,1.75
2022-12-11T22:52:31.085Z,1.88
2022-12-11T22:55:33.149Z,1.93
2022-12-11T22:58:35.369Z,1.86
2022-12-11T23:01:37.396Z,1.88
2022-12-11T23:04:39.843Z,1.94
2022-12-11T23:07:41.550Z,1.77
2022-12-11T23:10:43.166Z,1.75
2022-12-11T23:13:45.251Z,1.61
2022-12-11T23:16:47.169Z,1.61
2022-12-11T23:19:49.269Z,1.59
2022-12-11T23:22:51.422Z,1.57
2022-12-11T23:25:53.275Z,1.57
2022-12-11T23:28:56.492Z,1.47
2022-12-11T23:31:58.321Z,1.38
2022-12-11T23:34:59.975Z,1.36
2022-12-11T23:38:01.608Z,1.51
2022-12-11T23:41:04.231Z,1.39
2022-12-11T23:44:06.209Z,1.40
2022-12-11T23:47:07.776Z,1.39
2022-12-11T23:50:10.005Z,1.25
2022-12-11T23:53:12.128Z,1.38
2022-12-11T23:56:17.166Z,1.30
2022-12-11T23:59:18.802Z,1.38
